Linkwood, Maryland
Current Conditions -  °F | °C
As of 3:36 PM on Saturday 20 Dec 2014 (Local Time) from KCGE Reporting Station
Clear Clear  
Wind Chill:   Ceiling: Unl
Heat Index:   Visibility: 10mi
Dew Point: -4°   Wind: 0mph
Humidity: 60%   Direction: NA
Pressure: 30.26"   Gusts: NA
Location:  38.54°N, 75.95°W
Report Text: KCGE 202036Z AUTO 00000KT 10SM CLR 03/M04 A3026 RMK AO1
Loading
Personal Weather Stations






























Interactive Weather Map New forecast layout! Learn more

10-Day Weather Forecast

Advertisements
Track Severe Weather on mobile